createdAt,value
2023-05-02T00:02:08.754Z,97665.03
2023-05-02T00:04:39.798Z,97669.13
2023-05-02T00:07:10.369Z,97665.38
2023-05-02T00:09:41.076Z,97652.13
2023-05-02T00:12:11.596Z,97654.88
2023-05-02T00:14:42.176Z,97653.31
2023-05-02T00:17:21.460Z,97649.09
2023-05-02T00:19:52.121Z,97653.00
2023-05-02T00:22:23.391Z,97655.59
2023-05-02T00:24:54.266Z,97650.03
2023-05-02T00:27:24.853Z,97641.94
2023-05-02T00:29:55.411Z,97653.03
2023-05-02T00:32:28.983Z,97647.28
2023-05-02T00:34:59.446Z,97659.03
2023-05-02T00:37:31.203Z,97661.94
2023-05-02T00:40:02.599Z,97657.34
2023-05-02T00:42:34.911Z,97660.81
2023-05-02T00:45:07.031Z,97652.63
2023-05-02T00:47:40.581Z,97652.06
2023-05-02T00:50:12.452Z,97651.28
2023-05-02T00:52:43.045Z,97648.28
2023-05-02T00:55:13.724Z,97652.59
2023-05-02T00:57:44.375Z,97652.50
2023-05-02T01:00:17.186Z,97648.88
2023-05-02T01:02:59.118Z,97653.63
2023-05-02T01:05:38.943Z,97645.69
2023-05-02T01:08:19.442Z,97647.31
2023-05-02T01:10:56.973Z,97648.66
2023-05-02T01:13:33.830Z,97653.16
2023-05-02T01:16:06.606Z,97653.44
2023-05-02T01:18:45.206Z,97652.78
2023-05-02T01:21:15.971Z,97653.69
2023-05-02T01:24:00.630Z,97657.94
2023-05-02T01:26:43.125Z,97654.03
2023-05-02T01:29:18.691Z,97650.09
2023-05-02T01:31:53.680Z,97662.47
2023-05-02T01:34:26.625Z,97667.16
2023-05-02T01:37:00.831Z,97661.31
2023-05-02T01:39:32.057Z,97662.38
2023-05-02T01:42:05.573Z,97663.00
2023-05-02T01:44:40.876Z,97666.78
2023-05-02T01:47:13.045Z,97667.22
2023-05-02T01:49:46.157Z,97674.06
2023-05-02T01:52:18.943Z,97674.69
2023-05-02T01:54:49.906Z,97669.94
2023-05-02T01:57:21.312Z,97676.44
2023-05-02T01:59:54.617Z,97674.47
2023-05-02T02:02:27.741Z,97680.69
2023-05-02T02:04:59.653Z,97678.75
2023-05-02T02:07:30.588Z,97682.00
2023-05-02T02:10:00.988Z,97684.97
2023-05-02T02:12:38.977Z,97691.03
2023-05-02T02:15:30.817Z,97692.53
2023-05-02T02:18:04.332Z,97696.69
2023-05-02T02:20:36.278Z,97701.06
2023-05-02T02:23:10.748Z,97706.97
2023-05-02T02:25:41.610Z,97708.97
2023-05-02T02:28:11.953Z,97716.53
2023-05-02T02:30:45.061Z,97713.19
2023-05-02T02:33:16.657Z,97720.97
2023-05-02T02:36:03.668Z,97713.41
2023-05-02T02:38:41.837Z,97723.28
2023-05-02T02:41:19.163Z,97730.66
2023-05-02T02:44:04.412Z,97737.00
2023-05-02T02:46:54.251Z,97738.03
2023-05-02T02:49:36.496Z,97744.06
2023-05-02T02:52:14.316Z,97745.19
2023-05-02T02:54:50.385Z,97752.47
2023-05-02T02:57:35.126Z,97746.94
2023-05-02T03:00:21.933Z,97758.50
2023-05-02T03:02:59.098Z,97752.66
2023-05-02T03:05:29.564Z,97754.28
2023-05-02T03:08:04.700Z,97753.88
2023-05-02T03:10:35.781Z,97754.97
2023-05-02T03:13:06.332Z,97765.03
2023-05-02T03:16:24.533Z,97767.16
2023-05-02T03:18:58.098Z,97778.56
2023-05-02T03:21:28.597Z,97770.91
2023-05-02T03:24:01.673Z,97772.16
2023-05-02T03:26:32.888Z,97777.31
2023-05-02T03:29:03.735Z,97780.22
2023-05-02T03:31:39.691Z,97784.03
2023-05-02T03:34:16.793Z,97787.59
2023-05-02T03:36:50.392Z,97790.47
2023-05-02T03:39:21.019Z,97783.19
2023-05-02T03:41:52.389Z,97788.94
2023-05-02T03:44:28.443Z,97785.91
2023-05-02T03:46:58.977Z,97787.81
2023-05-02T03:49:33.139Z,97790.66
2023-05-02T03:52:04.167Z,97788.19
2023-05-02T03:54:38.083Z,97795.25
2023-05-02T03:57:09.120Z,97803.47
2023-05-02T03:59:41.857Z,97808.09
2023-05-02T04:02:20.710Z,97805.59
2023-05-02T04:04:55.548Z,97812.19
2023-05-02T04:07:27.353Z,97821.25
2023-05-02T04:10:03.264Z,97821.56
2023-05-02T04:12:38.108Z,97820.69
2023-05-02T04:15:10.786Z,97828.91
2023-05-02T04:17:41.860Z,97838.47
2023-05-02T04:20:16.988Z,97837.53
2023-05-02T04:22:51.788Z,97840.78
2023-05-02T04:25:22.347Z,97847.66
2023-05-02T04:27:55.185Z,97838.09
2023-05-02T04:30:27.287Z,97849.03
2023-05-02T04:33:06.160Z,97857.44
2023-05-02T04:35:43.213Z,97860.31
2023-05-02T04:38:17.910Z,97862.81
2023-05-02T04:40:50.137Z,97863.84
2023-05-02T04:43:22.451Z,97862.81
2023-05-02T04:46:00.113Z,97861.81
2023-05-02T04:48:34.961Z,97870.53
2023-05-02T04:51:09.533Z,97860.75
2023-05-02T04:53:41.332Z,97871.78
2023-05-02T04:56:12.274Z,97876.19
2023-05-02T04:58:42.457Z,97881.53
2023-05-02T05:01:14.324Z,97890.53
2023-05-02T05:03:45.268Z,97892.84
2023-05-02T05:06:19.627Z,97892.19
2023-05-02T05:08:50.594Z,97907.84
2023-05-02T05:11:21.201Z,97909.69
2023-05-02T05:13:51.685Z,97920.19
2023-05-02T05:16:22.719Z,97914.75
2023-05-02T05:18:54.182Z,97920.50
2023-05-02T05:21:27.458Z,97923.28
2023-05-02T05:23:59.214Z,97922.22
2023-05-02T05:26:32.293Z,97926.81
2023-05-02T05:29:03.095Z,97928.44
2023-05-02T05:31:39.959Z,97942.31
2023-05-02T05:34:10.594Z,97941.84
2023-05-02T05:36:44.454Z,97939.94
2023-05-02T05:39:15.400Z,97929.38
2023-05-02T05:41:47.538Z,97940.69
2023-05-02T05:44:18.152Z,97937.06
2023-05-02T05:46:48.791Z,97943.56
2023-05-02T05:49:19.882Z,97943.09
2023-05-02T05:51:53.751Z,97953.41
2023-05-02T05:54:24.473Z,97953.72
2023-05-02T05:56:54.910Z,97965.38
2023-05-02T05:59:25.792Z,97965.16
2023-05-02T06:01:57.765Z,97975.13
2023-05-02T06:04:28.914Z,97968.63
2023-05-02T06:07:02.139Z,97980.38
2023-05-02T06:09:33.548Z,97977.06
2023-05-02T06:12:08.072Z,97991.69
2023-05-02T06:14:39.368Z,97992.72
2023-05-02T06:17:09.812Z,97992.44
2023-05-02T06:19:40.394Z,97993.91
2023-05-02T06:22:15.909Z,98008.19
2023-05-02T06:24:46.547Z,98007.19
2023-05-02T06:27:17.011Z,98008.09
2023-05-02T06:29:47.675Z,98011.16
2023-05-02T06:32:18.167Z,98017.91
2023-05-02T06:34:48.978Z,98019.72
2023-05-02T06:37:22.188Z,98022.66
2023-05-02T06:39:52.726Z,98027.03
2023-05-02T06:42:23.246Z,98029.00
2023-05-02T06:44:54.757Z,98028.56
2023-05-02T06:47:25.691Z,98032.34
2023-05-02T06:49:55.896Z,98040.50
2023-05-02T06:52:28.967Z,98044.56
2023-05-02T06:54:59.427Z,98034.28
2023-05-02T06:57:30.259Z,98050.81
2023-05-02T07:00:00.926Z,98060.44
2023-05-02T07:02:31.262Z,98057.50
2023-05-02T07:05:01.875Z,98065.03
2023-05-02T07:07:35.030Z,98065.72
2023-05-02T07:10:06.169Z,98081.19
2023-05-02T07:12:37.003Z,98083.81
2023-05-02T07:15:10.533Z,98084.84
2023-05-02T07:17:41.148Z,98091.69
2023-05-02T07:20:15.802Z,98096.00
2023-05-02T07:22:48.940Z,98095.59
2023-05-02T07:25:19.708Z,98104.00
2023-05-02T07:27:50.154Z,98103.78
2023-05-02T07:30:20.655Z,98100.03
2023-05-02T07:32:51.164Z,98105.91
2023-05-02T07:35:21.852Z,98096.72
2023-05-02T07:37:54.953Z,98110.06
2023-05-02T07:40:25.522Z,98115.56
2023-05-02T07:42:55.969Z,98115.44
2023-05-02T07:45:26.605Z,98123.56
2023-05-02T07:47:57.211Z,98127.41
2023-05-02T07:50:27.954Z,98134.03
2023-05-02T07:53:01.420Z,98130.97
2023-05-02T07:55:33.433Z,98132.16
2023-05-02T07:58:04.275Z,98134.56
2023-05-02T08:00:34.771Z,98143.28
2023-05-02T08:03:05.322Z,98143.72
2023-05-02T08:05:36.342Z,98145.66
2023-05-02T08:08:09.207Z,98150.28
2023-05-02T08:10:39.708Z,98153.00
2023-05-02T08:13:10.167Z,98161.63
2023-05-02T08:15:40.628Z,98160.75
2023-05-02T08:18:11.580Z,98162.91
2023-05-02T08:20:41.767Z,98164.00
2023-05-02T08:23:14.820Z,98176.00
2023-05-02T08:25:45.570Z,98174.97
2023-05-02T08:28:16.290Z,98178.25
2023-05-02T08:30:47.200Z,98189.06
2023-05-02T08:33:17.512Z,98178.09
2023-05-02T08:35:48.093Z,98185.22
2023-05-02T08:38:21.176Z,98196.75
2023-05-02T08:40:51.962Z,98190.59
2023-05-02T08:43:22.741Z,98195.50
2023-05-02T08:45:57.686Z,98199.31
2023-05-02T08:48:28.509Z,98203.22
2023-05-02T08:50:59.252Z,98209.97
2023-05-02T08:53:35.183Z,98211.69
2023-05-02T08:56:06.391Z,98211.13
2023-05-02T08:58:37.102Z,98214.84
2023-05-02T09:01:16.582Z,98216.63
2023-05-02T09:03:49.515Z,98211.25
2023-05-02T09:06:22.114Z,98213.94
2023-05-02T09:08:55.712Z,98228.91
2023-05-02T09:11:27.430Z,98217.72
2023-05-02T09:13:59.188Z,98219.75
2023-05-02T09:16:30.133Z,98222.06
2023-05-02T09:19:02.470Z,98224.59
2023-05-02T09:21:41.546Z,98220.25
2023-05-02T09:24:25.452Z,98227.88
2023-05-02T09:27:03.232Z,98233.44
2023-05-02T09:29:36.487Z,98227.53
2023-05-02T09:32:08.599Z,98235.19
2023-05-02T09:34:39.683Z,98234.34
2023-05-02T09:37:12.789Z,98234.97
2023-05-02T09:40:09.731Z,98235.34
2023-05-02T09:42:40.711Z,98246.72
2023-05-02T09:45:24.122Z,98245.59
2023-05-02T09:47:56.179Z,98255.88
2023-05-02T09:50:36.825Z,98255.47
2023-05-02T09:53:09.736Z,98262.50
2023-05-02T09:55:43.690Z,98258.03
2023-05-02T09:58:25.859Z,98261.31
2023-05-02T10:00:56.439Z,98259.66
2023-05-02T10:03:29.282Z,98262.97
2023-05-02T10:06:01.072Z,98264.44
2023-05-02T10:08:32.819Z,98273.28
2023-05-02T10:11:11.648Z,98264.75
2023-05-02T10:13:44.538Z,98263.09
2023-05-02T10:16:16.640Z,98268.19
2023-05-02T10:18:55.891Z,98272.91
2023-05-02T10:21:30.426Z,98273.53
2023-05-02T10:24:01.291Z,98275.88
2023-05-02T10:26:34.678Z,98266.56
2023-05-02T10:29:05.861Z,98276.97
2023-05-02T10:31:39.918Z,98278.81
2023-05-02T10:34:13.689Z,98276.81
2023-05-02T10:36:44.159Z,98275.00
2023-05-02T10:39:16.207Z,98279.31
2023-05-02T10:41:49.651Z,98284.09
2023-05-02T10:44:20.191Z,98275.19
2023-05-02T10:46:51.479Z,98277.47
2023-05-02T10:49:27.524Z,98281.59
2023-05-02T10:51:58.587Z,98276.47
2023-05-02T10:54:29.472Z,98270.69
2023-05-02T10:57:11.426Z,98274.97
2023-05-02T10:59:43.044Z,98268.06
2023-05-02T11:02:51.924Z,98275.41
2023-05-02T11:05:22.778Z,98269.53
2023-05-02T11:07:53.166Z,98261.31
2023-05-02T11:10:31.612Z,98270.94
2023-05-02T11:13:04.870Z,98265.41
2023-05-02T11:16:02.382Z,98262.22
2023-05-02T11:19:02.254Z,98270.06
2023-05-02T11:21:34.117Z,98259.16
2023-05-02T11:24:41.207Z,98255.97
2023-05-02T11:27:44.230Z,98259.66
2023-05-02T11:30:17.407Z,98254.44
2023-05-02T11:33:20.430Z,98255.31
2023-05-02T11:35:52.107Z,98260.88
2023-05-02T11:38:24.457Z,98258.94
2023-05-02T11:41:00.945Z,98262.66
2023-05-02T11:43:32.918Z,98266.50
2023-05-02T11:46:06.218Z,98264.81
2023-05-02T11:48:36.763Z,98259.69
2023-05-02T11:51:07.752Z,98265.22
2023-05-02T11:53:44.292Z,98265.88
2023-05-02T11:56:14.958Z,98272.16
2023-05-02T11:58:47.183Z,98263.00
2023-05-02T12:01:20.416Z,98257.00
2023-05-02T12:03:52.846Z,98252.31
2023-05-02T12:06:23.636Z,98258.31
2023-05-02T12:08:55.831Z,98259.81
2023-05-02T12:11:27.196Z,98263.19
2023-05-02T12:13:58.445Z,98263.50
2023-05-02T12:16:31.883Z,98264.78
2023-05-02T12:19:03.191Z,98265.66
2023-05-02T12:21:34.597Z,98252.66
2023-05-02T12:24:05.543Z,98268.81
2023-05-02T12:26:36.065Z,98254.25
2023-05-02T12:29:08.923Z,98267.09
2023-05-02T12:31:42.141Z,98268.00
2023-05-02T12:34:12.893Z,98265.50
2023-05-02T12:36:48.227Z,98264.03
2023-05-02T12:39:18.746Z,98265.03
2023-05-02T12:41:49.050Z,98273.16
2023-05-02T12:44:38.940Z,98272.09
2023-05-02T12:47:16.324Z,98267.56
2023-05-02T12:49:53.744Z,98267.22
2023-05-02T12:52:29.727Z,98253.78
2023-05-02T12:55:25.588Z,98260.97
2023-05-02T12:58:04.511Z,98263.66
2023-05-02T13:00:36.522Z,98256.78
2023-05-02T13:03:10.526Z,98248.09
2023-05-02T13:05:41.404Z,98252.19
2023-05-02T13:08:11.899Z,98245.13
2023-05-02T13:10:42.446Z,98253.03
2023-05-02T13:13:12.944Z,98266.22
2023-05-02T13:15:43.428Z,98261.78
2023-05-02T13:18:16.644Z,98270.34
2023-05-02T13:20:50.089Z,98267.63
2023-05-02T13:23:20.605Z,98266.31
2023-05-02T13:25:51.207Z,98263.72
2023-05-02T13:28:21.414Z,98278.22
2023-05-02T13:30:51.971Z,98276.16
2023-05-02T13:33:24.757Z,98277.94
2023-05-02T13:35:55.257Z,98275.56
2023-05-02T13:38:25.714Z,98272.88
2023-05-02T13:40:56.932Z,98278.53
2023-05-02T13:43:27.774Z,98282.53
2023-05-02T13:45:58.355Z,98271.75
2023-05-02T13:48:31.149Z,98270.31
2023-05-02T13:51:01.649Z,98263.44
2023-05-02T13:53:31.826Z,98256.56
2023-05-02T13:56:02.487Z,98260.97
2023-05-02T13:58:32.979Z,98269.06
2023-05-02T14:01:03.604Z,98268.97
2023-05-02T14:03:36.970Z,98276.06
2023-05-02T14:06:07.843Z,98274.28
2023-05-02T14:08:38.616Z,98284.41
2023-05-02T14:11:09.204Z,98284.13
2023-05-02T14:13:39.356Z,98296.69
2023-05-02T14:16:09.953Z,98301.84
2023-05-02T14:18:42.794Z,98312.47
2023-05-02T14:21:13.364Z,98320.09
2023-05-02T14:23:43.918Z,98321.88
2023-05-02T14:26:15.494Z,98322.84
2023-05-02T14:28:46.583Z,98339.06
2023-05-02T14:31:17.196Z,98328.19
2023-05-02T14:33:50.403Z,98324.91
2023-05-02T14:36:20.970Z,98316.78
2023-05-02T14:38:51.572Z,98332.81
2023-05-02T14:41:22.416Z,98330.53
2023-05-02T14:43:54.386Z,98332.09
2023-05-02T14:46:25.304Z,98326.72
2023-05-02T14:48:58.067Z,98343.22
2023-05-02T14:51:28.520Z,98352.38
2023-05-02T14:53:58.965Z,98358.69
2023-05-02T14:56:29.548Z,98364.72
2023-05-02T14:59:00.078Z,98370.88
2023-05-02T15:01:30.974Z,98370.81
2023-05-02T15:04:06.648Z,98379.13
2023-05-02T15:06:38.504Z,98385.41
2023-05-02T15:09:12.158Z,98386.22
2023-05-02T15:11:42.764Z,98383.03
2023-05-02T15:14:13.317Z,98391.47
2023-05-02T15:16:43.816Z,98392.25
2023-05-02T15:19:17.141Z,98400.22
2023-05-02T15:21:47.542Z,98396.63
2023-05-02T15:24:17.981Z,98392.94
2023-05-02T15:26:49.464Z,98393.28
2023-05-02T15:29:20.143Z,98400.84
2023-05-02T15:31:50.602Z,98407.59
2023-05-02T15:34:27.128Z,98410.03
2023-05-02T15:36:58.039Z,98413.81
2023-05-02T15:39:28.292Z,98409.13
2023-05-02T15:41:58.764Z,98411.56
2023-05-02T15:44:29.184Z,98421.50
2023-05-02T15:46:59.472Z,98421.50
2023-05-02T15:49:34.611Z,98420.97
2023-05-02T15:52:05.999Z,98431.19
2023-05-02T15:54:37.506Z,98437.34
2023-05-02T15:57:08.316Z,98430.91
2023-05-02T15:59:38.493Z,98429.16
2023-05-02T16:02:08.753Z,98437.94
2023-05-02T16:04:43.221Z,98440.63
2023-05-02T16:07:13.620Z,98444.03
2023-05-02T16:09:43.909Z,98454.16
2023-05-02T16:12:14.897Z,98460.69
2023-05-02T16:14:47.282Z,98457.88
2023-05-02T16:17:17.451Z,98461.44
2023-05-02T16:19:50.237Z,98465.47
2023-05-02T16:22:20.711Z,98467.97
2023-05-02T16:24:50.942Z,98466.94
2023-05-02T16:27:21.154Z,98477.53
2023-05-02T16:29:51.420Z,98476.84
2023-05-02T16:32:23.469Z,98489.72
2023-05-02T16:34:56.610Z,98493.00
2023-05-02T16:37:26.827Z,98493.84
2023-05-02T16:39:58.038Z,98500.75
2023-05-02T16:42:28.275Z,98500.75
2023-05-02T16:44:59.569Z,98505.47
2023-05-02T16:47:29.960Z,98511.22
2023-05-02T16:50:03.590Z,98510.97
2023-05-02T16:52:36.703Z,98514.03
2023-05-02T16:55:07.834Z,98509.78
2023-05-02T16:57:39.214Z,98513.34
2023-05-02T17:00:15.089Z,98509.91
2023-05-02T17:02:45.489Z,98507.03
2023-05-02T17:05:20.286Z,98503.94
2023-05-02T17:07:50.414Z,98515.75
2023-05-02T17:10:21.421Z,98511.59
2023-05-02T17:12:51.731Z,98520.63
2023-05-02T17:15:24.031Z,98521.63
2023-05-02T17:17:54.330Z,98525.00
2023-05-02T17:20:27.432Z,98528.25
2023-05-02T17:22:58.004Z,98525.78
2023-05-02T17:25:28.357Z,98535.06
2023-05-02T17:27:58.650Z,98542.84
2023-05-02T17:30:29.565Z,98542.66
2023-05-02T17:33:00.288Z,98542.75
2023-05-02T17:35:33.336Z,98540.44
2023-05-02T17:38:03.606Z,98539.34
2023-05-02T17:40:35.391Z,98546.06
2023-05-02T17:43:06.920Z,98552.91
2023-05-02T17:45:39.602Z,98547.69
2023-05-02T17:48:09.870Z,98549.41
2023-05-02T17:50:44.023Z,98551.16
2023-05-02T17:53:15.774Z,98551.63
2023-05-02T17:55:46.024Z,98555.47
2023-05-02T17:58:16.340Z,98558.53
2023-05-02T18:00:46.680Z,98560.38
2023-05-02T18:03:18.043Z,98569.00
2023-05-02T18:05:51.160Z,98565.84
2023-05-02T18:08:21.398Z,98573.78
2023-05-02T18:10:51.717Z,98573.53
2023-05-02T18:13:25.125Z,98583.78
2023-05-02T18:16:00.446Z,98576.34
2023-05-02T18:18:30.696Z,98587.38
2023-05-02T18:21:03.769Z,98585.53
2023-05-02T18:23:34.097Z,98582.19
2023-05-02T18:26:04.527Z,98594.66
2023-05-02T18:28:35.565Z,98596.69
2023-05-02T18:31:08.728Z,98591.75
2023-05-02T18:33:38.860Z,98607.38
2023-05-02T18:36:13.724Z,98614.66
2023-05-02T18:38:43.864Z,98610.03
2023-05-02T18:41:14.079Z,98622.88
2023-05-02T18:43:44.355Z,98622.59
2023-05-02T18:46:17.746Z,98625.53
2023-05-02T18:48:48.523Z,98620.25
2023-05-02T18:51:21.875Z,98627.06
2023-05-02T18:53:52.207Z,98633.41
2023-05-02T18:56:22.356Z,98629.38
2023-05-02T18:58:56.532Z,98629.38
2023-05-02T19:01:31.046Z,98626.28
2023-05-02T19:04:03.242Z,98627.06
2023-05-02T19:06:36.297Z,98629.84
2023-05-02T19:09:06.564Z,98632.22
2023-05-02T19:11:36.909Z,98631.59
2023-05-02T19:14:07.382Z,98644.44
2023-05-02T19:16:41.292Z,98638.44
2023-05-02T19:19:11.562Z,98646.00
2023-05-02T19:21:45.959Z,98641.84
2023-05-02T19:24:17.031Z,98647.16
2023-05-02T19:26:47.345Z,98650.56
2023-05-02T19:29:17.697Z,98651.47
2023-05-02T19:31:47.990Z,98657.53
2023-05-02T19:34:20.940Z,98656.00
2023-05-02T19:36:59.643Z,98654.59
2023-05-02T19:39:29.754Z,98649.03
2023-05-02T19:42:00.010Z,98655.22
2023-05-02T19:44:30.410Z,98655.97
2023-05-02T19:47:03.592Z,98670.94
2023-05-02T19:49:33.784Z,98667.41
2023-05-02T19:52:07.772Z,98672.81
2023-05-02T19:54:37.991Z,98674.47
2023-05-02T19:57:08.261Z,98676.19
2023-05-02T19:59:38.489Z,98691.75
2023-05-02T20:02:09.648Z,98688.06
2023-05-02T20:04:39.892Z,98694.25
2023-05-02T20:07:12.638Z,98694.97
2023-05-02T20:09:46.546Z,98686.34
2023-05-02T20:12:18.639Z,98691.47
2023-05-02T20:14:48.784Z,98699.97
2023-05-02T20:17:18.934Z,98695.50
2023-05-02T20:19:49.042Z,98703.38
2023-05-02T20:22:21.856Z,98701.19
2023-05-02T20:24:52.122Z,98702.75
2023-05-02T20:27:22.282Z,98693.94
2023-05-02T20:29:52.496Z,98699.50
2023-05-02T20:32:22.758Z,98707.22
2023-05-02T20:34:53.073Z,98695.97
2023-05-02T20:37:26.024Z,98705.22
2023-05-02T20:39:56.214Z,98708.63
2023-05-02T20:42:27.533Z,98699.50
2023-05-02T20:44:58.756Z,98704.28
2023-05-02T20:47:30.312Z,98704.28
2023-05-02T20:50:00.823Z,98706.91
2023-05-02T20:52:33.978Z,98704.59
2023-05-02T20:55:04.487Z,98701.81
2023-05-02T20:57:34.709Z,98711.41
2023-05-02T21:00:05.162Z,98697.97
2023-05-02T21:02:35.529Z,98703.03
2023-05-02T21:05:05.616Z,98701.50
2023-05-02T21:07:40.589Z,98711.69
2023-05-02T21:10:12.332Z,98712.00
2023-05-02T21:12:42.549Z,98711.09
2023-05-02T21:15:14.565Z,98719.56
2023-05-02T21:17:44.876Z,98720.34
2023-05-02T21:20:16.236Z,98707.06
2023-05-02T21:22:48.983Z,98716.81
2023-05-02T21:25:19.341Z,98717.88
2023-05-02T21:27:49.513Z,98720.50
2023-05-02T21:30:19.689Z,98726.06
2023-05-02T21:32:49.866Z,98716.03
2023-05-02T21:35:20.295Z,98729.00
2023-05-02T21:37:53.205Z,98724.06
2023-05-02T21:40:23.321Z,98722.38
2023-05-02T21:42:53.436Z,98726.69
2023-05-02T21:45:23.581Z,98727.03
2023-05-02T21:47:54.402Z,98727.19
2023-05-02T21:50:24.832Z,98717.56
2023-05-02T21:52:57.560Z,98723.72
2023-05-02T21:55:27.944Z,98724.34
2023-05-02T21:57:58.321Z,98722.94
2023-05-02T22:00:28.655Z,98732.38
2023-05-02T22:02:58.991Z,98729.72
2023-05-02T22:05:29.469Z,98731.44
2023-05-02T22:08:02.303Z,98729.56
2023-05-02T22:10:33.471Z,98726.78
2023-05-02T22:13:03.662Z,98727.88
2023-05-02T22:15:34.193Z,98723.06
2023-05-02T22:18:07.231Z,98732.50
2023-05-02T22:20:38.236Z,98732.03
2023-05-02T22:23:11.150Z,98736.63
2023-05-02T22:25:42.952Z,98735.25
2023-05-02T22:28:14.074Z,98737.56
2023-05-02T22:30:45.613Z,98734.59
2023-05-02T22:33:15.925Z,98741.50
2023-05-02T22:35:46.187Z,98740.28
2023-05-02T22:38:20.310Z,98746.00
2023-05-02T22:40:50.802Z,98749.94
2023-05-02T22:43:20.976Z,98744.97
2023-05-02T22:45:51.498Z,98746.19
2023-05-02T22:48:22.059Z,98746.16
2023-05-02T22:50:52.359Z,98749.28
2023-05-02T22:53:26.291Z,98750.19
2023-05-02T22:55:56.870Z,98760.50
2023-05-02T22:58:27.091Z,98745.09
2023-05-02T23:00:57.395Z,98748.94
2023-05-02T23:03:27.698Z,98743.28
2023-05-02T23:05:57.892Z,98750.56
2023-05-02T23:08:30.678Z,98747.47
2023-05-02T23:11:00.865Z,98751.66
2023-05-02T23:13:31.165Z,98755.53
2023-05-02T23:16:01.898Z,98755.63
2023-05-02T23:18:32.114Z,98758.22
2023-05-02T23:21:02.510Z,98754.81
2023-05-02T23:23:35.261Z,98762.03
2023-05-02T23:26:05.353Z,98760.50
2023-05-02T23:28:35.471Z,98765.09
2023-05-02T23:31:07.116Z,98769.66
2023-05-02T23:33:38.003Z,98771.19
2023-05-02T23:36:09.653Z,98778.09
2023-05-02T23:38:43.444Z,98782.53
2023-05-02T23:41:13.645Z,98780.59
2023-05-02T23:43:43.978Z,98778.91
2023-05-02T23:46:14.207Z,98777.75
2023-05-02T23:48:44.330Z,98773.97
2023-05-02T23:51:14.915Z,98777.31
2023-05-02T23:53:47.678Z,98774.09
2023-05-02T23:56:18.156Z,98781.63
2023-05-02T23:58:51.432Z,98783.97
